Time;durP1;ratioP1;P1;durP2;ratioP2;P2;SDS_P1;SDS_P2;PMS_P1;PMS_P2;Temp;Humidity;BMP_temperature;BMP_pressure;BME280_temperature;BME280_humidity;BME280_pressure;Samples;Min_cycle;Max_cycle;Signal;HPM_P1;HPM_P2
2022/04/17 00:00:38;;;;;;;2.70;1.23;;;;;;;27.25;28.51;97761.75;4904535;28;20412;-34
2022/04/17 00:03:03;;;;;;;1.40;0.82;;;;;;;27.24;28.72;97754.75;4905196;28;20530;-33
2022/04/17 00:05:28;;;;;;;1.17;0.80;;;;;;;27.24;28.57;97749.50;4906414;28;20035;-34
2022/04/17 00:07:54;;;;;;;2.20;0.90;;;;;;;27.25;28.70;97750.38;4903543;28;20043;-31
2022/04/17 00:10:19;;;;;;;2.00;0.98;;;;;;;27.24;28.55;97738.97;4903264;28;20098;-30
2022/04/17 00:12:45;;;;;;;1.08;0.90;;;;;;;27.24;28.55;97738.97;4918047;28;20038;-30
2022/04/17 00:15:10;;;;;;;1.70;1.00;;;;;;;27.23;28.36;97742.53;4921613;28;20327;-32
2022/04/17 00:17:42;;;;;;;1.50;1.10;;;;;;;27.24;28.68;97743.41;4921507;28;20439;-32
2022/04/17 00:20:16;;;;;;;;;;;;;;;27.23;28.46;97736.44;4925267;28;20130;-30
2022/04/17 00:22:42;;;;;;;1.23;0.77;;;;;;;27.22;28.32;97732.06;4923111;28;20503;-30
2022/04/17 00:25:08;;;;;;;2.38;1.27;;;;;;;27.21;28.51;97731.25;4924905;28;20027;-32
2022/04/17 00:27:34;;;;;;;1.92;0.88;;;;;;;27.20;28.43;97732.16;4922012;28;20063;-30
2022/04/17 00:30:00;;;;;;;2.63;1.20;;;;;;;27.21;28.50;97735.63;4924809;28;20924;-33
2022/04/17 00:32:26;;;;;;;2.28;0.95;;;;;;;27.21;28.50;97735.63;4923807;28;20035;-35
2022/04/17 00:34:51;;;;;;;0.70;0.70;;;;;;;27.21;28.50;97730.38;4922065;28;20031;-37
2022/04/17 00:37:17;;;;;;;1.15;1.02;;;;;;;27.20;28.41;97731.31;4925150;28;20035;-35
2022/04/17 00:39:42;;;;;;;1.10;0.80;;;;;;;27.19;28.42;97724.34;4926213;28;20538;-31
2022/04/17 00:42:09;;;;;;;1.50;0.77;;;;;;;27.20;28.55;97731.31;4922684;28;20043;-39
2022/04/17 00:44:35;;;;;;;1.80;0.93;;;;;;;27.19;28.37;97713.81;4923582;28;20039;-34
2022/04/17 00:47:01;;;;;;;1.90;0.90;;;;;;;27.19;28.51;97713.81;4927970;28;20034;-33
2022/04/17 00:49:26;;;;;;;0.98;0.82;;;;;;;27.19;28.43;97713.81;4927905;28;20047;-32
2022/04/17 00:51:51;;;;;;;0.90;0.80;;;;;;;27.17;28.42;97713.88;4931153;28;20074;-31
2022/04/17 00:54:18;;;;;;;1.33;0.93;;;;;;;27.18;28.42;97714.72;4932838;28;20545;-31
2022/04/17 00:56:43;;;;;;;0.93;0.80;;;;;;;27.17;28.41;97710.38;4929123;28;20043;-31
2022/04/17 00:59:09;;;;;;;1.45;1.00;;;;;;;27.16;28.53;97709.53;4929135;28;20034;-31
2022/04/17 01:01:36;;;;;;;1.42;0.98;;;;;;;27.17;28.45;97716.50;4929581;28;20020;-33
2022/04/17 01:04:01;;;;;;;1.38;0.63;;;;;;;27.15;28.47;97706.97;4930219;28;20035;-37
2022/04/17 01:06:27;;;;;;;1.10;0.80;;;;;;;27.15;28.39;97701.72;4928436;28;20121;-33
2022/04/17 01:08:52;;;;;;;1.10;0.70;;;;;;;27.14;28.40;97706.09;4930615;28;20691;-32
2022/04/17 01:11:18;;;;;;;1.48;0.95;;;;;;;27.15;28.25;97701.72;4909135;28;20040;-30
2022/04/17 01:13:43;;;;;;;1.48;1.00;;;;;;;27.13;28.41;97694.75;4881328;28;20043;-32
2022/04/17 01:16:09;;;;;;;1.38;0.82;;;;;;;27.13;28.31;97699.16;4889658;28;20038;-39
2022/04/17 01:18:57;;;;;;;1.33;0.70;;;;;;;27.15;28.38;97701.72;4889090;28;20036;-34
2022/04/17 01:21:25;;;;;;;0.95;0.80;;;;;;;27.15;28.43;97691.19;4885524;28;20043;-34
2022/04/17 01:29:18;;;;;;;0.80;0.63;;;;;;;27.15;28.31;97701.72;4888092;28;20042;-32
2022/04/17 01:31:45;;;;;;;1.02;0.70;;;;;;;27.14;28.42;97690.31;4884388;28;20035;-33
2022/04/17 01:34:10;;;;;;;0.88;0.70;;;;;;;27.13;28.20;97689.50;4879776;28;20032;-36
2022/04/17 01:36:35;;;;;;;1.00;0.57;;;;;;;27.13;28.24;97688.63;4883980;28;20061;-32
2022/04/17 01:39:01;;;;;;;1.33;0.75;;;;;;;27.13;28.26;97686.84;4883817;28;20638;-32
2022/04/17 01:41:26;;;;;;;0.50;0.50;;;;;;;27.14;28.17;97685.06;4884706;28;21271;-34
2022/04/17 01:43:52;;;;;;;2.65;0.75;;;;;;;27.13;28.38;97684.22;4886231;28;20089;-33
2022/04/17 01:46:17;;;;;;;1.98;0.80;;;;;;;27.14;28.24;97679.78;4883791;28;22258;-33
2022/04/17 01:48:42;;;;;;;2.15;0.85;;;;;;;27.13;28.32;97673.69;4883873;28;23270;-31
2022/04/17 01:51:08;;;;;;;0.90;0.65;;;;;;;27.14;28.35;97674.53;4883498;28;20034;-35
2022/04/17 01:53:33;;;;;;;0.90;0.80;;;;;;;27.13;28.41;97663.19;4882499;28;20904;-33
2022/04/17 01:56:00;;;;;;;1.27;0.60;;;;;;;27.13;28.28;97665.81;4885240;28;20038;-32
2022/04/17 01:58:25;;;;;;;1.50;0.80;;;;;;;27.13;28.34;97663.19;4901444;28;20039;-35
2022/04/17 02:00:50;;;;;;;1.48;0.70;;;;;;;27.13;28.24;97652.66;4882176;28;20039;-35
2022/04/17 02:03:16;;;;;;;1.30;0.80;;;;;;;27.13;28.22;97660.53;4884506;28;20647;-34
2022/04/17 02:05:41;;;;;;;1.88;1.05;;;;;;;27.12;28.33;97652.72;4885289;28;20039;-32
2022/04/17 02:08:07;;;;;;;1.50;0.88;;;;;;;27.12;28.36;97661.44;4885303;28;20039;-32
2022/04/17 02:10:32;;;;;;;1.00;0.70;;;;;;;27.13;28.12;97657.03;4886467;28;20039;-32
2022/04/17 02:13:00;;;;;;;0.70;0.50;;;;;;;27.11;28.09;97658.88;4926184;28;20036;-31
2022/04/17 02:15:25;;;;;;;2.25;0.80;;;;;;;27.13;28.20;97657.91;4923847;28;20106;-35
2022/04/17 02:17:51;;;;;;;1.00;0.60;;;;;;;27.12;28.11;97656.19;4919181;28;20046;-30
2022/04/17 02:20:16;;;;;;;1.17;0.60;;;;;;;27.12;28.22;97656.19;4919603;28;20834;-32
2022/04/17 02:22:41;;;;;;;2.08;0.70;;;;;;;27.12;28.44;97645.66;4920357;28;20039;-38
2022/04/17 02:25:07;;;;;;;1.20;0.90;;;;;;;27.11;28.24;97649.22;4919327;28;20039;-40
2022/04/17 02:27:33;;;;;;;1.25;0.85;;;;;;;27.12;28.22;97639.56;4919102;28;20063;-33
2022/04/17 02:29:58;;;;;;;0.60;0.60;;;;;;;27.12;28.31;97639.56;4921746;28;21606;-33
2022/04/17 02:32:24;;;;;;;1.75;0.60;;;;;;;27.10;28.22;97642.25;4920928;28;20032;-34
2022/04/17 02:34:49;;;;;;;1.13;0.80;;;;;;;27.11;28.43;97643.09;4920829;28;20046;-31
2022/04/17 02:37:15;;;;;;;0.85;0.68;;;;;;;27.11;28.32;97640.47;4922704;28;20035;-33
2022/04/17 02:39:40;;;;;;;1.20;0.60;;;;;;;27.10;28.24;97633.50;4924217;28;20039;-31
2022/04/17 02:42:06;;;;;;;1.00;0.70;;;;;;;27.10;28.28;97637.00;4923803;28;20078;-33
2022/04/17 02:44:31;;;;;;;0.93;0.57;;;;;;;27.10;28.20;97626.47;4921942;28;20043;-33
2022/04/17 02:49:40;;;;;;;0.63;0.60;;;;;;;27.10;28.37;97628.25;4921118;28;20117;-33
2022/04/17 02:52:06;;;;;;;0.93;0.63;;;;;;;27.10;28.31;97623.84;4927417;28;20108;-34
2022/04/17 02:54:32;;;;;;;1.00;0.70;;;;;;;27.09;28.34;97619.50;4926163;28;20047;-29
2022/04/17 02:56:57;;;;;;;0.70;0.70;;;;;;;27.08;28.27;97615.16;4925474;28;20192;-35
2022/04/17 02:59:22;;;;;;;0.60;0.50;;;;;;;27.09;28.18;97616.88;4925691;28;20028;-33
2022/04/17 03:07:15;;;;;;;1.38;0.70;;;;;;;27.09;28.33;97616.88;4925446;28;20038;-29
2022/04/17 03:09:41;;;;;;;0.80;0.50;;;;;;;27.09;28.22;97608.13;4923129;28;20543;-30
2022/04/17 03:12:06;;;;;;;1.02;0.68;;;;;;;27.09;28.18;97610.75;4926292;28;20028;-33
2022/04/17 03:14:31;;;;;;;0.65;0.47;;;;;;;27.08;28.37;97612.53;4926689;28;20122;-30
2022/04/17 03:16:57;;;;;;;1.50;0.95;;;;;;;27.08;28.34;97612.53;4928469;28;20035;-30
2022/04/17 03:19:22;;;;;;;2.55;0.75;;;;;;;27.07;28.44;97608.19;4929017;28;20028;-35
2022/04/17 03:21:48;;;;;;;1.65;0.70;;;;;;;27.07;28.41;97602.94;4928921;28;20027;-31
2022/04/17 03:24:14;;;;;;;1.02;0.65;;;;;;;27.07;28.46;97600.28;4932006;28;20440;-30
2022/04/17 03:26:41;;;;;;;0.75;0.60;;;;;;;27.06;28.30;97603.84;4933419;28;20113;-30
2022/04/17 03:29:06;;;;;;;0.85;0.60;;;;;;;27.07;28.44;97604.69;4933810;28;20035;-32
2022/04/17 03:31:32;;;;;;;0.68;0.55;;;;;;;27.07;28.30;97600.28;4946303;28;20039;-30
2022/04/17 03:33:57;;;;;;;0.88;0.60;;;;;;;27.06;28.19;97603.84;4933541;28;20040;-31
2022/04/17 03:36:22;;;;;;;0.95;0.80;;;;;;;27.06;28.45;97609.13;4931376;28;20839;-30
2022/04/17 03:38:48;;;;;;;0.70;0.60;;;;;;;27.06;28.38;97613.50;4925330;28;20098;-29
2022/04/17 03:41:13;;;;;;;1.15;0.68;;;;;;;27.06;28.48;97614.38;4924448;28;20020;-32
2022/04/17 03:43:39;;;;;;;1.00;0.82;;;;;;;27.06;28.24;97609.13;4926804;28;20030;-32
2022/04/17 03:46:04;;;;;;;0.90;0.63;;;;;;;27.05;28.49;97612.69;4927678;28;20039;-30
2022/04/17 03:48:30;;;;;;;1.00;0.65;;;;;;;27.05;28.32;97612.69;4926041;28;20035;-31
2022/04/17 03:50:56;;;;;;;0.60;0.60;;;;;;;27.05;28.17;97607.41;4922903;28;20019;-31
2022/04/17 03:53:21;;;;;;;1.15;0.60;;;;;;;27.04;28.40;97610.94;4925938;28;20486;-31
2022/04/17 03:55:47;;;;;;;0.82;0.57;;;;;;;27.05;28.61;97609.19;4927185;28;20042;-31
2022/04/17 03:58:12;;;;;;;1.42;0.60;;;;;;;27.04;28.21;97604.84;4927448;28;20031;-33
2022/04/17 04:00:37;;;;;;;2.70;0.80;;;;;;;27.03;28.57;97609.25;4924827;28;20031;-31
2022/04/17 04:03:03;;;;;;;0.70;0.70;;;;;;;27.04;28.30;97610.13;4926464;28;20031;-32
2022/04/17 04:05:28;;;;;;;0.63;0.60;;;;;;;27.03;28.40;97604.00;4927910;28;20027;-31
2022/04/17 04:07:54;;;;;;;0.73;0.60;;;;;;;27.03;28.37;97604.00;4924403;28;20035;-31
2022/04/17 04:10:19;;;;;;;1.00;0.63;;;;;;;27.03;28.47;97605.78;4926420;28;20090;-34
2022/04/17 04:12:45;;;;;;;0.85;0.70;;;;;;;27.02;28.28;97602.28;4928033;28;20482;-35
2022/04/17 04:15:10;;;;;;;1.33;0.80;;;;;;;27.02;28.34;97596.16;4927155;28;20024;-32
2022/04/17 04:17:36;;;;;;;0.60;0.50;;;;;;;27.03;28.24;97604.00;4927847;28;20034;-30
2022/04/17 04:20:02;;;;;;;0.50;0.47;;;;;;;27.02;28.31;97602.28;4924406;28;20031;-32
2022/04/17 04:22:28;;;;;;;2.10;0.80;;;;;;;27.02;28.27;97597.03;4925118;28;20816;-30
2022/04/17 04:24:53;;;;;;;1.13;0.70;;;;;;;27.01;28.38;97592.69;4924653;28;20027;-38
2022/04/17 04:30:03;;;;;;;1.42;0.65;;;;;;;27.00;28.31;97601.47;4926185;28;20053;-41
2022/04/17 04:32:29;;;;;;;4.85;0.80;;;;;;;27.00;28.28;97599.72;4926293;28;20397;-31
2022/04/17 04:34:59;;;;;;;2.88;0.75;;;;;;;27.00;28.55;97598.84;4927193;28;20110;-31
2022/04/17 04:37:24;;;;;;;0.88;0.70;;;;;;;26.99;28.17;97597.16;4924022;28;20034;-34
2022/04/17 04:39:50;;;;;;;0.50;0.50;;;;;;;27.00;28.18;97601.47;4930377;28;20031;-32
2022/04/17 04:42:15;;;;;;;0.70;0.50;;;;;;;26.98;28.35;97598.09;4934100;28;20028;-33
2022/04/17 04:44:40;;;;;;;0.70;0.60;;;;;;;26.98;28.29;97603.34;4934957;29;20090;-33
2022/04/17 04:47:06;;;;;;;2.67;0.70;;;;;;;26.98;28.28;97600.72;4932996;28;20129;-32
2022/04/17 04:49:31;;;;;;;0.82;0.50;;;;;;;26.98;28.38;97600.72;4932555;28;20035;-31
2022/04/17 04:52:01;;;;;;;0.90;0.70;;;;;;;26.97;28.34;97610.38;4934779;28;20044;-33
2022/04/17 04:54:30;;;;;;;0.77;0.50;;;;;;;26.97;28.17;97617.44;4948555;28;20914;-30
2022/04/17 04:56:56;;;;;;;3.28;0.60;;;;;;;26.97;28.46;97612.16;4932422;28;20035;-31
2022/04/17 04:59:21;;;;;;;0.40;0.40;;;;;;;26.97;28.29;97620.06;4933670;28;20027;-31
2022/04/17 05:01:50;;;;;;;1.15;0.70;;;;;;;26.96;28.32;97621.81;4932824;28;20030;-33
2022/04/17 05:04:19;;;;;;;0.50;0.50;;;;;;;26.96;28.55;97619.19;4930520;28;20048;-31
2022/04/17 05:06:45;;;;;;;0.65;0.47;;;;;;;26.97;28.28;97620.06;4930356;28;20042;-31
2022/04/17 05:09:10;;;;;;;0.68;0.65;;;;;;;26.96;28.08;97615.72;4931655;28;20027;-32
2022/04/17 05:11:38;;;;;;;0.93;0.75;;;;;;;26.95;28.31;97611.38;4925201;28;20032;-32
2022/04/17 05:14:09;;;;;;;1.40;0.70;;;;;;;26.96;28.46;97605.22;4924647;28;20094;-32
2022/04/17 05:16:35;;;;;;;0.75;0.50;;;;;;;26.94;28.32;97605.28;4925663;28;20043;-32
2022/04/17 05:21:46;;;;;;;0.47;0.43;;;;;;;26.96;28.30;97613.09;4925529;28;20061;-35
2022/04/17 05:24:15;;;;;;;0.93;0.63;;;;;;;26.95;28.29;97611.38;4926303;28;20501;-32
2022/04/17 05:26:40;;;;;;;0.50;0.50;;;;;;;26.94;28.24;97599.13;4928018;28;20046;-33
2022/04/17 05:29:06;;;;;;;1.15;0.68;;;;;;;26.93;28.35;97600.88;4925761;28;20027;-35
2022/04/17 05:31:32;;;;;;;0.60;0.40;;;;;;;26.94;28.35;97599.13;4924914;28;20031;-36
2022/04/17 05:33:57;;;;;;;1.10;0.75;;;;;;;26.92;28.33;97606.22;4924645;28;20035;-34
2022/04/17 05:36:23;;;;;;;0.85;0.63;;;;;;;26.92;28.44;97606.22;4925682;28;20698;-33
2022/04/17 05:38:48;;;;;;;1.38;0.55;;;;;;;26.94;28.36;97604.38;4922801;28;20042;-32
2022/04/17 05:41:14;;;;;;;0.60;0.60;;;;;;;26.93;28.11;97607.94;4921069;28;20027;-38
2022/04/17 05:43:39;;;;;;;0.50;0.50;;;;;;;26.92;28.31;97616.75;4926632;28;20031;-32
2022/04/17 05:46:04;;;;;;;0.40;0.40;;;;;;;26.92;28.33;97627.28;4941193;28;20398;-31
2022/04/17 05:48:30;;;;;;;1.30;0.70;;;;;;;26.89;28.36;97617.75;4926944;28;20106;-36
2022/04/17 05:50:56;;;;;;;1.95;1.30;;;;;;;26.92;28.24;97629.91;4927262;28;20048;-33
2022/04/17 05:53:21;;;;;;;1.60;0.90;;;;;;;26.91;28.32;97630.81;4941753;28;20035;-35
2022/04/17 05:55:47;;;;;;;2.10;0.90;;;;;;;26.90;28.19;97624.72;4926554;28;20121;-33
2022/04/17 05:58:12;;;;;;;0.93;0.70;;;;;;;26.90;28.24;97621.22;4927581;28;20516;-34
2022/04/17 06:00:42;;;;;;;0.70;0.70;;;;;;;26.90;28.25;97623.84;4927114;28;20039;-33
2022/04/17 06:03:07;;;;;;;0.80;0.60;;;;;;;26.90;28.38;97629.09;4931562;28;20473;-36
2022/04/17 06:05:33;;;;;;;1.30;0.68;;;;;;;26.88;28.30;97622.16;4931294;28;20032;-32
2022/04/17 06:07:58;;;;;;;1.38;0.70;;;;;;;26.90;28.34;97634.38;4924523;28;20118;-32
2022/04/17 06:10:24;;;;;;;0.77;0.50;;;;;;;26.90;28.29;97642.25;4922077;28;20050;-33
2022/04/17 06:12:49;;;;;;;0.47;0.40;;;;;;;26.90;28.47;97639.63;4925103;28;20031;-33
2022/04/17 06:15:14;;;;;;;1.20;0.57;;;;;;;26.89;28.31;97638.78;4923303;28;20054;-34
2022/04/17 06:17:41;;;;;;;0.40;0.40;;;;;;;26.89;28.27;97628.25;4923143;28;20050;-30
2022/04/17 06:20:08;;;;;;;0.80;0.70;;;;;;;26.90;28.29;97621.22;4923929;28;20056;-34
2022/04/17 06:22:37;;;;;;;0.75;0.52;;;;;;;26.91;28.36;97630.81;4922599;28;20034;-32
2022/04/17 06:25:09;;;;;;;0.50;0.50;;;;;;;26.89;28.34;97623.00;4925244;28;20518;-31
2022/04/17 06:27:45;;;;;;;1.08;0.60;;;;;;;26.89;28.42;97615.13;4928720;28;20063;-32
2022/04/17 06:30:15;;;;;;;2.72;0.70;;;;;;;26.88;28.35;97611.63;4926591;28;20537;-33
2022/04/17 06:32:41;;;;;;;0.80;0.65;;;;;;;26.90;28.29;97615.94;4927123;28;20035;-32
2022/04/17 06:35:07;;;;;;;6.63;0.90;;;;;;;26.90;28.35;97608.06;4929042;28;20035;-32
2022/04/17 06:37:48;;;;;;;2.80;1.08;;;;;;;26.92;28.18;97619.38;4928854;28;20686;-33
2022/04/17 06:40:21;;;;;;;16.90;1.92;;;;;;;26.91;28.05;97617.66;4921966;28;20039;-33
2022/04/17 06:42:47;;;;;;;14.63;1.75;;;;;;;26.92;28.14;97617.59;4923045;28;20019;-34
2022/04/17 06:45:12;;;;;;;6.13;1.75;;;;;;;26.92;28.14;97620.22;4928781;28;20505;-39
2022/04/17 06:47:38;;;;;;;6.65;1.80;;;;;;;26.92;28.23;97611.50;4922634;28;20044;-36
2022/04/17 06:50:04;;;;;;;6.88;1.83;;;;;;;26.93;28.23;97614.03;4922663;28;20027;-33
2022/04/17 06:52:30;;;;;;;3.47;1.77;;;;;;;26.93;28.15;97605.31;4924236;28;20026;-32
2022/04/17 06:54:55;;;;;;;14.85;2.53;;;;;;;26.94;28.19;97599.13;4925739;28;20031;-34
2022/04/17 06:57:30;;;;;;;6.50;2.90;;;;;;;26.95;28.14;97600.84;4924499;28;20031;-31
2022/04/17 06:59:55;;;;;;;14.40;3.03;;;;;;;26.95;28.18;97600.84;4925368;28;20038;-33
2022/04/17 07:02:20;;;;;;;12.73;3.08;;;;;;;26.97;28.35;97599.00;4923790;28;20031;-34
2022/04/17 07:04:46;;;;;;;9.65;3.10;;;;;;;26.98;28.22;97600.72;4923293;28;20031;-33
2022/04/17 07:07:11;;;;;;;13.23;3.58;;;;;;;26.98;28.17;97590.19;4925024;28;20051;-35
2022/04/17 07:09:37;;;;;;;8.20;3.38;;;;;;;27.00;28.18;97596.22;4923179;28;20031;-31
2022/04/17 07:12:02;;;;;;;12.82;3.38;;;;;;;27.00;28.17;97597.09;4927201;28;20989;-31
2022/04/17 07:14:28;;;;;;;10.05;3.45;;;;;;;27.02;28.09;97591.75;4927335;28;20043;-32
2022/04/17 07:16:53;;;;;;;12.50;3.53;;;;;;;27.04;28.27;97591.69;4923298;28;20099;-30
2022/04/17 07:19:20;;;;;;;9.82;3.65;;;;;;;27.04;28.27;97589.91;4924600;28;20177;-31
2022/04/17 07:21:46;;;;;;;12.27;3.20;;;;;;;27.06;28.09;97588.06;4924221;28;20106;-30
2022/04/17 07:24:11;;;;;;;12.35;3.55;;;;;;;27.07;28.16;97588.91;4921656;28;20671;-36
2022/04/17 07:26:36;;;;;;;8.23;3.15;;;;;;;27.07;28.12;97579.25;4922991;28;20089;-33
2022/04/17 07:29:03;;;;;;;7.63;3.15;;;;;;;27.07;28.12;97579.25;4915745;28;20434;-31
2022/04/17 07:31:29;;;;;;;6.18;2.85;;;;;;;27.10;28.14;97583.50;4924826;28;20034;-33
2022/04/17 07:33:54;;;;;;;8.18;3.03;;;;;;;27.10;28.04;97573.00;4922426;28;20530;-39
2022/04/17 07:36:20;;;;;;;9.10;3.10;;;;;;;27.11;28.12;97574.69;4924276;28;20031;-35
2022/04/17 07:38:46;;;;;;;10.82;3.00;;;;;;;27.11;28.04;97567.66;4939720;28;20031;-37
2022/04/17 07:41:11;;;;;;;10.57;2.80;;;;;;;27.13;28.03;97568.47;4923588;28;20550;-38
2022/04/17 07:43:36;;;;;;;6.68;3.25;;;;;;;27.15;28.02;97572.78;4925655;28;20063;-34
2022/04/17 07:46:02;;;;;;;9.40;2.70;;;;;;;27.15;28.07;97570.16;4925125;28;20024;-34
2022/04/17 07:48:27;;;;;;;9.27;3.00;;;;;;;27.15;27.80;97573.63;4922297;28;20046;-31
2022/04/17 07:50:54;;;;;;;5.65;2.30;;;;;;;27.16;28.07;97577.13;4924344;28;20076;-35
2022/04/17 07:53:20;;;;;;;7.85;2.50;;;;;;;27.16;28.21;97566.59;4924108;28;20039;-33
2022/04/17 07:55:45;;;;;;;6.90;2.70;;;;;;;27.18;28.08;97559.47;4923754;28;20035;-34
2022/04/17 07:58:22;;;;;;;7.20;2.67;;;;;;;27.19;28.29;97561.19;4921260;28;20498;-32
2022/04/17 08:00:57;;;;;;;6.75;2.60;;;;;;;27.21;28.21;97556.72;4924542;28;20063;-31
2022/04/17 08:03:37;;;;;;;6.53;2.50;;;;;;;27.21;28.14;97546.19;4926768;28;20062;-30
2022/04/17 08:06:06;;;;;;;7.05;2.38;;;;;;;27.23;28.25;97546.97;4921136;28;20035;-32
2022/04/17 08:08:36;;;;;;;5.90;2.40;;;;;;;27.24;28.24;97548.69;4925705;28;20659;-30
2022/04/17 08:11:02;;;;;;;8.10;2.40;;;;;;;27.24;28.33;97544.25;4918788;28;20389;-30
2022/04/17 08:13:27;;;;;;;5.18;2.30;;;;;;;27.26;28.35;97549.44;4922845;28;20115;-37
2022/04/17 08:15:53;;;;;;;15.70;2.10;;;;;;;27.16;19.74;97556.06;4922272;28;20506;-33
2022/04/17 08:18:18;;;;;;;2.75;1.77;;;;;;;26.97;21.83;97551.66;4943120;28;21002;-31
2022/04/17 08:20:44;;;;;;;3.35;2.20;;;;;;;26.73;20.88;97543.94;4926622;28;20031;-30
2022/04/17 08:23:09;;;;;;;15.38;2.15;;;;;;;26.50;21.27;97544.97;4926803;28;20027;-34
2022/04/17 08:25:35;;;;;;;8.90;1.90;;;;;;;26.30;20.74;97542.28;4923030;28;20036;-33
2022/04/17 08:28:02;;;;;;;3.05;1.90;;;;;;;26.18;21.39;97548.91;4921079;28;20035;-31
2022/04/17 08:30:31;;;;;;;5.82;1.80;;;;;;;26.10;21.46;97536.06;4922421;28;20115;-30
2022/04/17 08:32:58;;;;;;;2.88;1.60;;;;;;;26.05;21.67;97538.03;4923297;28;20043;-31
2022/04/17 08:35:23;;;;;;;4.75;1.73;;;;;;;26.03;21.71;97534.66;4925117;28;20078;-31
2022/04/17 08:37:49;;;;;;;4.30;1.88;;;;;;;26.03;21.99;97534.66;4922412;28;21692;-36
2022/04/17 08:40:15;;;;;;;2.55;1.50;;;;;;;26.04;22.09;97538.97;4922218;28;20042;-31
2022/04/17 08:42:40;;;;;;;4.35;1.70;;;;;;;26.06;22.29;97537.16;4921826;28;20085;-32
2022/04/17 08:45:12;;;;;;;10.38;1.50;;;;;;;26.09;22.37;97539.63;4922804;28;20429;-37
2022/04/17 08:47:38;;;;;;;3.47;1.48;;;;;;;26.13;22.49;97542.13;4920172;28;21120;-32
2022/04/17 08:50:07;;;;;;;2.90;1.55;;;;;;;26.15;22.63;97532.41;4921921;28;20034;-31
2022/04/17 08:52:33;;;;;;;2.33;1.20;;;;;;;26.19;22.76;97533.97;4925707;28;20032;-32
2022/04/17 08:54:59;;;;;;;2.13;1.20;;;;;;;26.21;22.85;97527.72;4928547;28;20111;-33
2022/04/17 08:57:24;;;;;;;4.43;1.40;;;;;;;26.23;22.87;97515.41;4924107;28;20110;-30
2022/04/17 08:59:50;;;;;;;5.05;1.40;;;;;;;26.28;23.02;97512.59;4925075;28;20118;-32
2022/04/17 09:02:17;;;;;;;10.30;2.03;;;;;;;26.30;23.01;97516.03;4920886;28;20039;-35
2022/04/17 09:04:42;;;;;;;6.38;1.40;;;;;;;26.33;23.20;97510.63;4920913;28;20031;-39
2022/04/17 09:07:10;;;;;;;17.50;2.15;;;;;;;26.35;23.33;97500.91;4919212;28;20066;-35
2022/04/17 09:09:53;;;;;;;3.25;1.30;;;;;;;26.39;23.42;97492.88;4921233;28;20233;-34
2022/04/17 09:12:26;;;;;;;2.88;1.40;;;;;;;26.41;23.59;97484.00;4926904;28;20143;-33
2022/04/17 09:14:53;;;;;;;12.25;2.35;;;;;;;26.43;23.58;97484.78;4931110;28;20062;-30
2022/04/17 09:17:18;;;;;;;7.03;2.40;;;;;;;26.45;23.79;97476.84;4927749;28;20093;-32
2022/04/17 09:19:44;;;;;;;11.30;3.13;;;;;;;26.47;23.77;97478.47;4931558;28;20028;-30
2022/04/17 09:22:09;;;;;;;12.23;2.70;;;;;;;26.49;23.76;97467.91;4924209;28;20031;-31
2022/04/17 09:24:41;;;;;;;8.85;2.67;;;;;;;26.51;23.99;97476.56;4927292;28;20040;-33
2022/04/17 09:27:07;;;;;;;14.10;2.85;;;;;;;26.54;24.10;97480.84;4929008;28;20027;-34
2022/04/17 09:29:35;;;;;;;9.90;3.03;;;;;;;26.55;24.20;97478.13;4929761;28;20463;-31
2022/04/17 09:32:07;;;;;;;9.65;2.85;;;;;;;26.56;24.08;97469.31;4944702;28;20619;-31
2022/04/17 09:34:42;;;;;;;10.40;3.00;;;;;;;26.59;24.31;97466.53;4929414;28;20066;-32
2022/04/17 09:37:18;;;;;;;11.57;3.00;;;;;;;26.61;24.41;97450.69;4931170;28;20126;-30
2022/04/17 09:39:44;;;;;;;12.70;3.08;;;;;;;26.61;24.50;97448.94;4932458;28;20030;-30
2022/04/17 09:42:10;;;;;;;7.90;3.00;;;;;;;26.64;24.50;97449.69;4924722;28;20142;-34
2022/04/17 09:44:49;;;;;;;6.80;2.72;;;;;;;26.65;24.61;97451.44;4925935;28;20142;-34
2022/04/17 09:47:17;;;;;;;8.32;2.47;;;;;;;26.66;24.55;97447.88;4928514;28;20486;-30
2022/04/17 09:50:02;;;;;;;9.35;3.00;;;;;;;26.68;24.66;97446.00;4931398;28;20030;-34
2022/04/17 09:52:48;;;;;;;6.28;2.45;;;;;;;26.69;24.72;97447.75;4929667;28;20027;-32
2022/04/17 09:55:14;;;;;;;7.93;2.40;;;;;;;26.71;24.79;97448.50;4929634;28;20107;-33
2022/04/17 09:57:40;;;;;;;7.53;2.78;;;;;;;26.71;24.73;97445.88;4943755;28;20091;-35
2022/04/17 10:00:13;;;;;;;6.82;2.53;;;;;;;26.73;24.80;97444.00;4931151;28;20091;-32
2022/04/17 10:02:38;;;;;;;6.15;2.28;;;;;;;26.73;24.92;97444.00;4930581;28;20039;-30
2022/04/17 10:05:05;;;;;;;5.43;2.28;;;;;;;26.75;24.95;97447.44;4932021;29;20030;-33
2022/04/17 10:07:31;;;;;;;6.65;2.35;;;;;;;26.76;24.87;97443.88;4931569;28;20040;-34
2022/04/17 10:09:56;;;;;;;9.13;2.70;;;;;;;26.76;24.93;97433.38;4940469;28;20040;-33
2022/04/17 10:12:22;;;;;;;9.55;2.42;;;;;;;26.77;25.02;97432.44;4927714;28;20040;-32
2022/04/17 10:14:48;;;;;;;5.13;2.00;;;;;;;26.77;25.21;97427.16;4945725;28;20019;-32
2022/04/17 10:17:14;;;;;;;5.85;2.30;;;;;;;26.78;25.12;97426.28;4945458;28;20510;-30
2022/04/17 10:19:41;;;;;;;12.93;2.25;;;;;;;26.79;25.19;97433.22;4930996;28;20031;-33
2022/04/17 10:22:07;;;;;;;6.32;2.03;;;;;;;26.80;25.19;97418.28;4926851;28;20850;-31
2022/04/17 10:24:32;;;;;;;5.32;2.10;;;;;;;26.82;25.26;97421.72;4929421;28;20038;-31
2022/04/17 10:26:57;;;;;;;3.88;1.88;;;;;;;26.82;25.36;97417.31;4943416;28;20035;-32
2022/04/17 10:29:41;;;;;;;5.20;2.22;;;;;;;26.83;25.37;97423.41;4929379;28;20043;-32
2022/04/17 10:32:25;;;;;;;4.47;1.85;;;;;;;26.83;25.33;97411.13;4938203;28;20070;-33
2022/04/17 10:34:53;;;;;;;5.75;1.90;;;;;;;26.84;25.37;97415.44;4928215;28;20147;-34
2022/04/17 10:37:51;;;;;;;5.90;2.00;;;;;;;26.85;25.34;97416.31;4924567;28;20041;-31
2022/04/17 10:40:17;;;;;;;5.43;1.88;;;;;;;26.86;25.58;97407.50;4930112;28;20079;-32
2022/04/17 10:43:15;;;;;;;4.75;1.75;;;;;;;26.85;25.57;97401.38;4929873;28;20034;-33
2022/04/17 10:46:08;;;;;;;3.67;2.17;;;;;;;26.86;25.65;97400.44;4929273;28;20059;-33
2022/04/17 10:48:44;;;;;;;7.90;1.90;;;;;;;26.86;25.66;97400.44;4928766;28;20036;-30
2022/04/17 10:51:13;;;;;;;3.83;1.90;;;;;;;26.87;25.65;97402.16;4926124;28;20035;-32
2022/04/17 10:54:07;;;;;;;5.55;2.00;;;;;;;26.89;25.62;97407.34;4928745;28;20098;-31
2022/04/17 10:56:39;;;;;;;3.70;1.80;;;;;;;26.89;25.68;97399.47;4930708;28;20035;-30
2022/04/17 10:59:32;;;;;;;3.75;1.65;;;;;;;26.90;25.78;97395.03;4930617;28;20030;-32
2022/04/17 11:02:04;;;;;;;4.95;1.77;;;;;;;26.90;25.64;97398.53;4930603;28;20055;-34
2022/04/17 11:04:53;;;;;;;5.90;1.90;;;;;;;26.91;25.66;97384.44;4927675;28;20074;-31
2022/04/17 11:07:22;;;;;;;3.83;1.70;;;;;;;26.92;25.72;97385.31;4925039;28;20039;-30
2022/04/17 11:09:48;;;;;;;4.72;1.85;;;;;;;26.92;25.86;97386.16;4928578;28;20479;-32
2022/04/17 11:12:19;;;;;;;3.42;1.70;;;;;;;26.94;25.75;97384.34;4933774;28;20034;-31
2022/04/17 11:14:56;;;;;;;2.85;1.40;;;;;;;26.94;25.79;97375.56;4932983;28;20033;-34
2022/04/17 11:17:22;;;;;;;3.30;1.55;;;;;;;26.95;25.80;97379.91;4931672;28;20042;-29
2022/04/17 11:19:48;;;;;;;2.83;1.40;;;;;;;26.95;25.94;97369.41;4928000;28;20095;-31
2022/04/17 11:22:16;;;;;;;2.60;1.42;;;;;;;26.95;25.83;97366.75;4930248;28;20039;-36
2022/04/17 11:25:02;;;;;;;3.80;1.85;;;;;;;26.95;25.91;97358.88;4932783;28;20118;-33
2022/04/17 11:27:49;;;;;;;3.35;1.40;;;;;;;26.97;25.91;97359.66;4927257;28;20039;-40
2022/04/17 11:30:18;;;;;;;3.13;1.65;;;;;;;26.97;25.99;97357.03;4933876;28;20036;-30
2022/04/17 11:32:43;;;;;;;3.30;1.55;;;;;;;26.97;25.92;97352.59;4932877;29;20047;-30
2022/04/17 11:35:12;;;;;;;2.88;1.63;;;;;;;26.98;25.97;97353.47;4930639;28;20043;-30
2022/04/17 11:37:37;;;;;;;3.70;1.50;;;;;;;26.99;26.00;97349.91;4926601;28;20043;-30
2022/04/17 11:40:16;;;;;;;2.50;1.52;;;;;;;26.98;25.73;97349.06;4918645;28;20505;-32
2022/04/17 11:42:42;;;;;;;4.32;1.88;;;;;;;27.01;25.80;97348.06;4928687;28;20059;-35
2022/04/17 11:45:08;;;;;;;3.22;1.40;;;;;;;27.00;26.47;97351.59;4913013;28;20031;-32
2022/04/17 11:47:44;;;;;;;3.03;1.58;;;;;;;27.01;25.72;97345.44;4921441;28;20046;-35
2022/04/17 11:50:11;;;;;;;3.30;1.50;;;;;;;26.98;25.41;97343.81;4922724;28;20035;-34
2022/04/17 11:52:37;;;;;;;2.53;1.50;;;;;;;26.97;24.92;97330.75;4929097;28;20129;-32
2022/04/17 11:55:03;;;;;;;5.57;1.40;;;;;;;26.95;24.64;97320.28;4924359;28;21980;-33